AKDT,Max TemperatureF,Mean TemperatureF,Min TemperatureF,Max Dew PointF,MeanDew PointF,Min DewpointF,Max Humidity, Mean Humidity, Min Humidity, Max Sea Level PressureIn, Mean Sea Level PressureIn, Min Sea Level PressureIn, Max VisibilityMiles, Mean VisibilityMiles, Min VisibilityMiles, Max Wind SpeedMPH, Mean Wind SpeedMPH, Max Gust SpeedMPH,PrecipitationIn, CloudCover, Events, WindDirDegrees
2013-8-1,68,61,54,57,55,50,0,0,0,29.99,29.86,29.73,10,10,10,13,4,15,0.02,7,Rain,278
2013-8-2,62,60,58,58,57,56,0,0,0,29.74,29.65,29.59,10,7,2,20,10,26,0.56,8,Rain,133
2013-8-3,59,58,56,58,56,54,0,0,0,29.60,29.54,29.49,10,9,2,16,7,18,0.06,8,Rain,101
2013-8-4,57,53,49,54,51,44,0,0,0,29.75,29.61,29.49,10,9,3,21,9,23,0.20,7,Rain,229
2013-8-5,59,52,44,55,51,41,0,0,0,29.78,29.75,29.73,10,8,2,20,8,23,0.28,8,Rain,53
2013-8-6,61,56,50,55,53,50,0,0,0,29.81,29.79,29.73,10,9,2,17,9,21,0.33,7,Rain,88
2013-8-7,72,64,56,53,51,49,0,0,0,29.72,29.63,29.55,10,10,10,22,12,26,T,7,Rain,66
2013-8-8,61,58,55,55,53,50,0,0,0,29.57,29.52,29.47,10,7,2,14,6,17,0.70,8,Rain,133
2013-8-9,58,54,50,52,50,46,0,0,0,29.55,29.51,29.48,10,10,4,15,8,20,0.07,7,Rain,101
2013-8-10,61,54,47,53,50,46,0,0,0,29.80,29.68,29.57,10,10,6,8,3,10,0.17,7,Rain,81
2013-8-11,58,55,52,52,51,49,0,0,0,29.99,29.90,29.81,10,10,3,12,6,13,0.15,7,Rain,168
2013-8-12,58,54,50,50,47,45,0,0,0,30.12,30.07,30.00,10,10,5,13,6,14,0.01,7,Rain,234
2013-8-13,66,54,42,51,47,41,0,0,0,30.06,29.97,29.85,10,10,10,14,7,16,0.00,4,,61
2013-8-14,60,56,52,55,51,46,0,0,0,29.86,29.84,29.80,10,7,2,13,6,15,0.21,7,Rain,339
2013-8-15,59,55,51,54,52,50,0,0,0,29.86,29.82,29.75,10,9,5,14,0,15,0.27,8,Rain,299
2013-8-16,64,57,50,54,50,47,0,0,0,29.76,29.73,29.69,10,10,10,13,5,15,0.00,6,,275
2013-8-17,67,55,43,48,45,41,0,0,0,29.75,29.73,29.70,10,10,10,17,7,24,0.00,3,,319
2013-8-18,55,47,38,52,47,38,0,0,0,29.72,29.63,29.49,10,7,1,17,5,20,0.38,6,Fog-Rain,193
2013-8-19,64,57,50,52,49,45,0,0,0,29.72,29.57,29.48,10,9,3,23,8,26,0.00,7,Rain,332
2013-8-20,56,52,47,47,44,41,0,0,0,29.76,29.74,29.71,10,10,10,10,4,14,T,7,,126
2013-8-21,56,53,49,54,51,43,0,0,0,29.70,29.61,29.57,10,6,2,17,11,24,0.09,8,Rain,77
2013-8-22,59,55,50,55,52,49,0,0,0,29.65,29.58,29.55,10,5,2,25,9,32,0.17,8,Rain,264
2013-8-23,61,53,44,48,41,36,0,0,0,29.92,29.81,29.66,10,10,10,17,10,21,0.00,3,,332
2013-8-24,53,45,36,44,38,32,0,0,0,30.01,29.96,29.85,10,10,10,12,4,14,0.00,3,,126
2013-8-25,62,54,46,48,45,40,0,0,0,29.84,29.68,29.61,10,10,10,26,15,32,0.03,8,Rain,89
2013-8-26,53,51,48,52,48,44,0,0,0,29.70,29.65,29.61,10,6,2,20,11,28,0.31,8,Rain,188
2013-8-27,52,46,40,47,45,39,0,0,0,29.70,29.66,29.62,10,9,5,17,10,21,0.04,8,Rain,234
2013-8-28,56,47,38,42,39,35,0,0,0,29.79,29.67,29.62,10,10,10,16,5,20,T,6,Rain,348
2013-8-29,49,41,33,36,31,28,0,0,0,29.98,29.93,29.82,10,10,10,18,7,23,0.00,2,,315
2013-8-30,48,43,38,43,39,33,0,0,0,30.03,30.00,29.95,10,10,5,15,2,18,0.09,8,Rain,44
2013-8-31,52,48,43,42,40,37,0,0,0,29.95,29.88,29.82,10,10,9,20,10,26,0.07,7,Rain,66